createdAt,value
2022-08-27T00:00:18.459Z,18.00
2022-08-27T00:02:45.736Z,18.00
2022-08-27T00:05:15.006Z,18.00
2022-08-27T00:07:43.005Z,18.00
2022-08-27T00:10:14.867Z,17.90
2022-08-27T00:12:41.994Z,17.90
2022-08-27T00:15:09.366Z,18.00
2022-08-27T00:17:38.818Z,17.90
2022-08-27T00:20:06.597Z,17.90
2022-08-27T00:22:33.513Z,17.90
2022-08-27T00:25:00.634Z,18.00
2022-08-27T00:27:27.258Z,18.00
2022-08-27T00:29:53.966Z,17.90
2022-08-27T00:32:20.569Z,17.90
2022-08-27T00:34:47.179Z,17.90
2022-08-27T00:37:13.998Z,17.80
2022-08-27T00:39:40.713Z,17.90
2022-08-27T00:42:07.784Z,17.90
2022-08-27T00:44:34.766Z,17.80
2022-08-27T00:47:06.912Z,17.70
2022-08-27T00:49:54.370Z,17.70
2022-08-27T00:52:27.342Z,17.90
2022-08-27T00:55:02.993Z,17.70
2022-08-27T00:57:30.498Z,17.70
2022-08-27T00:59:57.165Z,17.70
2022-08-27T01:02:29.221Z,17.60
2022-08-27T01:05:00.478Z,17.60
2022-08-27T01:07:30.049Z,17.60
2022-08-27T01:10:00.158Z,17.60
2022-08-27T01:12:28.265Z,17.60
2022-08-27T01:14:56.333Z,17.50
2022-08-27T01:17:24.749Z,17.50
2022-08-27T01:19:58.846Z,17.50
2022-08-27T01:22:33.038Z,17.50
2022-08-27T01:25:06.018Z,17.50
2022-08-27T01:27:32.629Z,17.50
2022-08-27T01:29:59.715Z,17.50
2022-08-27T01:32:32.057Z,17.50
2022-08-27T01:35:00.161Z,17.50
2022-08-27T01:37:27.432Z,17.50
2022-08-27T01:39:56.962Z,17.50
2022-08-27T01:42:34.001Z,17.40
2022-08-27T01:45:06.073Z,17.40
2022-08-27T01:47:34.779Z,17.40
2022-08-27T01:50:02.493Z,17.50
2022-08-27T01:52:30.815Z,17.40
2022-08-27T01:54:57.925Z,17.40
2022-08-27T01:57:26.193Z,17.30
2022-08-27T01:59:54.739Z,17.30
2022-08-27T02:02:22.507Z,17.30
2022-08-27T02:04:51.049Z,17.30
2022-08-27T02:07:18.401Z,17.20
2022-08-27T02:09:45.266Z,17.30
2022-08-27T02:12:11.887Z,17.20
2022-08-27T02:14:38.486Z,17.20
2022-08-27T02:17:05.198Z,17.20
2022-08-27T02:19:31.788Z,17.30
2022-08-27T02:22:00.308Z,17.20
2022-08-27T02:24:28.395Z,17.20
2022-08-27T02:26:55.402Z,17.20
2022-08-27T02:29:22.870Z,17.20
2022-08-27T02:31:50.691Z,17.20
2022-08-27T02:34:18.219Z,17.20
2022-08-27T02:36:45.035Z,17.10
2022-08-27T02:39:12.042Z,17.10
2022-08-27T02:41:38.654Z,17.10
2022-08-27T02:44:10.376Z,17.10
2022-08-27T02:46:38.738Z,17.00
2022-08-27T02:49:05.627Z,16.90
2022-08-27T02:51:32.357Z,16.90
2022-08-27T02:53:59.857Z,17.00
2022-08-27T02:56:26.480Z,16.90
2022-08-27T02:58:53.565Z,16.90
2022-08-27T03:01:20.804Z,16.90
2022-08-27T03:03:47.457Z,16.80
2022-08-27T03:06:14.275Z,16.80
2022-08-27T03:08:52.146Z,16.80
2022-08-27T03:11:22.977Z,16.70
2022-08-27T03:13:50.375Z,16.70
2022-08-27T03:16:17.152Z,16.70
2022-08-27T03:18:44.437Z,16.70
2022-08-27T03:21:21.545Z,16.70
2022-08-27T03:23:51.293Z,16.60
2022-08-27T03:26:19.510Z,16.60
2022-08-27T03:28:46.716Z,16.60
2022-08-27T03:31:20.344Z,16.60
2022-08-27T03:33:46.992Z,16.60
2022-08-27T03:36:13.650Z,16.60
2022-08-27T03:38:40.376Z,16.60
2022-08-27T03:41:07.369Z,16.50
2022-08-27T03:43:34.039Z,16.50
2022-08-27T03:46:02.378Z,16.50
2022-08-27T03:48:31.651Z,16.50
2022-08-27T03:50:58.231Z,16.50
2022-08-27T03:53:24.841Z,16.50
2022-08-27T03:55:51.464Z,16.50
2022-08-27T03:58:18.472Z,16.50
2022-08-27T04:00:45.898Z,16.50
2022-08-27T04:03:14.079Z,16.60
2022-08-27T04:05:45.239Z,16.40
2022-08-27T04:08:13.176Z,16.50
2022-08-27T04:10:41.624Z,16.40
2022-08-27T04:13:08.347Z,16.50
2022-08-27T04:15:35.195Z,16.50
2022-08-27T04:18:07.291Z,16.50
2022-08-27T04:20:35.733Z,16.50
2022-08-27T04:23:03.126Z,16.50
2022-08-27T04:25:29.794Z,16.60
2022-08-27T04:27:56.732Z,16.50
2022-08-27T04:30:23.477Z,16.50
2022-08-27T04:32:50.595Z,16.60
2022-08-27T04:35:17.601Z,16.60
2022-08-27T04:37:44.318Z,16.50
2022-08-27T04:40:11.237Z,16.50
2022-08-27T04:42:37.999Z,16.50
2022-08-27T04:45:05.370Z,16.60
2022-08-27T04:47:32.164Z,16.50
2022-08-27T04:49:59.336Z,16.40
2022-08-27T04:52:26.205Z,16.50
2022-08-27T04:54:53.881Z,16.40
2022-08-27T04:57:20.951Z,16.40
2022-08-27T04:59:47.963Z,16.40
2022-08-27T05:02:14.616Z,16.40
2022-08-27T05:04:41.293Z,16.50
2022-08-27T05:07:10.026Z,16.40
2022-08-27T05:09:37.230Z,16.30
2022-08-27T05:12:04.134Z,16.40
2022-08-27T05:14:32.276Z,16.40
2022-08-27T05:16:59.902Z,16.40
2022-08-27T05:19:26.810Z,16.40
2022-08-27T05:21:53.832Z,16.50
2022-08-27T05:24:21.116Z,16.50
2022-08-27T05:26:48.210Z,16.40
2022-08-27T05:29:15.126Z,16.40
2022-08-27T05:31:42.882Z,16.40
2022-08-27T05:34:10.442Z,16.40
2022-08-27T05:36:47.740Z,16.50
2022-08-27T05:39:16.039Z,16.40
2022-08-27T05:41:42.955Z,16.50
2022-08-27T05:44:39.090Z,16.50
2022-08-27T05:46:57.373Z,16.50
2022-08-27T05:49:23.994Z,16.60
2022-08-27T05:51:50.616Z,16.60
2022-08-27T05:54:19.491Z,16.60
2022-08-27T05:56:47.331Z,16.60
2022-08-27T05:59:34.683Z,16.70
2022-08-27T06:02:02.246Z,16.80
2022-08-27T06:04:28.891Z,16.70
2022-08-27T06:06:55.577Z,16.70
2022-08-27T06:09:26.866Z,16.80
2022-08-27T06:11:55.438Z,16.70
2022-08-27T06:14:22.344Z,16.70
2022-08-27T06:16:49.114Z,16.70
2022-08-27T06:19:16.577Z,16.80
2022-08-27T06:21:43.350Z,16.80
2022-08-27T06:24:12.711Z,17.00
2022-08-27T06:26:41.890Z,16.90
2022-08-27T06:29:09.339Z,17.00
2022-08-27T06:31:35.985Z,17.00
2022-08-27T06:34:07.570Z,17.10
2022-08-27T06:36:37.996Z,17.20
2022-08-27T06:39:05.742Z,17.20
2022-08-27T06:41:33.302Z,17.30
2022-08-27T06:44:00.061Z,17.30
2022-08-27T06:46:29.487Z,17.40
2022-08-27T06:48:58.766Z,17.60
2022-08-27T06:51:29.710Z,17.60
2022-08-27T06:53:59.068Z,17.60
2022-08-27T06:56:26.274Z,17.70
2022-08-27T06:58:59.038Z,17.80
2022-08-27T07:01:30.589Z,17.80
2022-08-27T07:04:02.572Z,17.90
2022-08-27T07:06:30.493Z,17.90
2022-08-27T07:08:57.705Z,18.00
2022-08-27T07:11:25.251Z,18.00
2022-08-27T07:13:52.538Z,18.10
2022-08-27T07:16:22.771Z,18.20
2022-08-27T07:18:51.891Z,18.30
2022-08-27T07:21:21.926Z,18.40
2022-08-27T07:23:50.862Z,18.40
2022-08-27T07:26:19.355Z,18.50
2022-08-27T07:28:47.584Z,18.50
2022-08-27T07:31:17.537Z,18.60
2022-08-27T07:33:46.194Z,18.50
2022-08-27T07:36:19.357Z,18.50
2022-08-27T07:38:53.528Z,18.50
2022-08-27T07:41:30.582Z,18.70
2022-08-27T07:44:17.881Z,18.70
2022-08-27T07:46:48.365Z,18.80
2022-08-27T07:49:17.169Z,18.90
2022-08-27T07:51:44.386Z,19.00
2022-08-27T07:54:11.069Z,19.00
2022-08-27T07:56:37.866Z,18.90
2022-08-27T07:59:04.489Z,18.90
2022-08-27T08:01:31.233Z,18.90
2022-08-27T08:03:57.904Z,18.90
2022-08-27T08:06:24.531Z,18.90
2022-08-27T08:08:51.265Z,19.00
2022-08-27T08:11:18.547Z,19.20
2022-08-27T08:13:46.502Z,19.00
2022-08-27T08:16:13.456Z,19.00
2022-08-27T08:18:40.754Z,18.90
2022-08-27T08:21:10.809Z,19.10
2022-08-27T08:23:38.711Z,19.10
2022-08-27T08:26:07.056Z,19.10
2022-08-27T08:28:33.845Z,18.90
2022-08-27T08:31:00.511Z,19.00
2022-08-27T08:33:27.682Z,19.10
2022-08-27T08:35:54.768Z,19.20
2022-08-27T08:38:21.779Z,19.10
2022-08-27T08:40:54.492Z,19.10
2022-08-27T08:43:33.046Z,19.20
2022-08-27T08:46:17.878Z,19.10
2022-08-27T08:48:49.459Z,19.00
2022-08-27T08:51:29.766Z,19.30
2022-08-27T08:54:03.361Z,19.10
2022-08-27T08:56:52.989Z,19.00
2022-08-27T08:59:32.730Z,19.00
2022-08-27T09:01:59.705Z,19.20
2022-08-27T09:04:27.862Z,19.10
2022-08-27T09:07:17.531Z,19.10
2022-08-27T09:09:47.030Z,19.50
2022-08-27T09:12:24.879Z,19.60
2022-08-27T09:15:04.128Z,19.90
2022-08-27T09:17:32.681Z,19.90
2022-08-27T09:19:59.321Z,19.80
2022-08-27T09:22:41.730Z,19.50
2022-08-27T09:25:21.014Z,19.50
2022-08-27T09:27:50.574Z,19.40
2022-08-27T09:30:30.861Z,19.50
2022-08-27T09:33:06.877Z,19.50
2022-08-27T09:35:42.892Z,19.50
2022-08-27T09:38:10.190Z,19.50
2022-08-27T09:40:49.427Z,19.50
2022-08-27T09:43:16.519Z,19.50
2022-08-27T09:45:58.289Z,19.60
2022-08-27T09:48:37.209Z,19.80
2022-08-27T09:51:10.640Z,19.90
2022-08-27T09:53:44.888Z,20.10
2022-08-27T09:56:27.978Z,20.40
2022-08-27T09:59:09.189Z,20.50
2022-08-27T10:01:50.053Z,20.50
2022-08-27T10:04:24.383Z,20.80
2022-08-27T10:06:52.187Z,21.00
2022-08-27T10:09:39.032Z,20.80
2022-08-27T10:12:19.424Z,21.00
2022-08-27T10:14:51.194Z,21.30
2022-08-27T10:17:52.680Z,21.60
2022-08-27T10:20:34.495Z,21.70
2022-08-27T10:23:10.125Z,21.70
2022-08-27T10:26:04.211Z,21.80
2022-08-27T10:28:49.499Z,22.10
2022-08-27T10:31:34.886Z,21.90
2022-08-27T10:34:26.022Z,22.20
2022-08-27T10:37:36.810Z,22.40
2022-08-27T10:40:18.872Z,22.70
2022-08-27T10:42:57.564Z,22.80
2022-08-27T10:45:33.256Z,23.10
2022-08-27T10:48:28.459Z,23.10
2022-08-27T10:51:23.350Z,23.10
2022-08-27T10:53:49.905Z,23.40
2022-08-27T10:56:38.041Z,23.70
2022-08-27T10:59:32.087Z,24.00
2022-08-27T11:02:18.044Z,23.90
2022-08-27T11:04:53.452Z,23.80
2022-08-27T11:07:41.093Z,24.00
2022-08-27T11:10:24.353Z,24.20
2022-08-27T11:12:54.718Z,24.50
2022-08-27T11:15:29.993Z,24.10
2022-08-27T11:18:16.438Z,23.80
2022-08-27T11:21:04.693Z,24.10
2022-08-27T11:23:52.473Z,24.30
2022-08-27T11:26:19.143Z,24.50
2022-08-27T11:28:56.953Z,24.40
2022-08-27T11:31:41.598Z,24.20
2022-08-27T11:34:17.539Z,24.20
2022-08-27T11:36:47.695Z,24.50
2022-08-27T11:39:39.871Z,24.90
2022-08-27T11:42:48.422Z,24.50
2022-08-27T11:45:38.634Z,24.50
2022-08-27T11:48:28.282Z,24.70
2022-08-27T11:50:57.165Z,24.50
2022-08-27T11:53:28.616Z,24.90
2022-08-27T11:55:56.106Z,24.90
2022-08-27T11:58:24.498Z,25.20
2022-08-27T12:00:54.902Z,25.20
2022-08-27T12:03:21.545Z,25.00
2022-08-27T12:05:54.442Z,25.10
2022-08-27T12:08:24.013Z,25.30
2022-08-27T12:11:27.795Z,25.30
2022-08-27T12:14:24.316Z,25.10
2022-08-27T12:17:05.152Z,24.80
2022-08-27T12:19:44.003Z,25.10
2022-08-27T12:23:02.221Z,25.20
2022-08-27T12:25:29.064Z,25.40
2022-08-27T12:28:05.785Z,25.30
2022-08-27T12:30:35.571Z,25.00
2022-08-27T12:33:19.120Z,25.20
2022-08-27T12:35:50.443Z,25.30
2022-08-27T12:38:39.853Z,25.00
2022-08-27T12:41:11.141Z,24.80
2022-08-27T12:43:43.301Z,24.90
2022-08-27T12:46:18.970Z,25.40
2022-08-27T12:48:55.139Z,25.30
2022-08-27T12:51:30.082Z,25.40
2022-08-27T12:54:08.717Z,25.20
2022-08-27T12:56:49.878Z,25.10
2022-08-27T12:59:38.348Z,24.70
2022-08-27T13:02:34.664Z,24.40
2022-08-27T13:05:04.449Z,24.60
2022-08-27T13:07:43.850Z,24.30
2022-08-27T13:10:20.477Z,24.50
2022-08-27T13:12:48.783Z,24.90
2022-08-27T13:15:17.069Z,24.70
2022-08-27T13:17:46.179Z,24.90
2022-08-27T13:20:17.230Z,24.70
2022-08-27T13:22:44.346Z,24.90
2022-08-27T13:25:34.907Z,24.90
2022-08-27T13:28:12.696Z,25.00
2022-08-27T13:30:42.582Z,24.90
2022-08-27T13:33:14.584Z,24.60
2022-08-27T13:35:43.566Z,24.60
2022-08-27T13:38:10.898Z,24.40
2022-08-27T13:41:07.802Z,24.40
2022-08-27T13:43:36.092Z,24.30
2022-08-27T13:46:07.318Z,24.50
2022-08-27T13:48:34.475Z,24.50
2022-08-27T13:51:01.957Z,24.60
2022-08-27T13:53:50.195Z,24.60
2022-08-27T13:56:44.429Z,24.80
2022-08-27T13:59:15.018Z,24.50
2022-08-27T14:02:09.699Z,24.40
2022-08-27T14:04:43.269Z,24.20
2022-08-27T14:07:20.572Z,24.30
2022-08-27T14:09:54.198Z,24.00
2022-08-27T14:12:34.901Z,24.10
2022-08-27T14:15:32.106Z,24.20
2022-08-27T14:17:58.945Z,24.10
2022-08-27T14:20:25.639Z,24.10
2022-08-27T14:22:52.618Z,24.00
2022-08-27T14:25:22.495Z,24.20
2022-08-27T14:27:54.367Z,24.40
2022-08-27T14:30:29.663Z,24.50
2022-08-27T14:33:00.746Z,24.30
2022-08-27T14:35:29.488Z,24.50
2022-08-27T14:37:56.438Z,24.50
2022-08-27T14:40:23.188Z,24.70
2022-08-27T14:42:49.884Z,24.70
2022-08-27T14:45:18.318Z,24.50
2022-08-27T14:47:45.171Z,24.40
2022-08-27T14:50:13.544Z,24.50
2022-08-27T14:52:40.700Z,24.50
2022-08-27T14:55:10.899Z,24.50
2022-08-27T14:57:38.706Z,24.30
2022-08-27T15:00:07.754Z,24.00
2022-08-27T15:02:34.990Z,23.80
2022-08-27T15:05:01.803Z,23.70
2022-08-27T15:07:38.602Z,23.80
2022-08-27T15:10:08.029Z,23.70
2022-08-27T15:12:34.762Z,23.70
2022-08-27T15:15:01.449Z,23.80
2022-08-27T15:17:35.034Z,23.80
2022-08-27T15:20:09.133Z,23.80
2022-08-27T15:22:44.000Z,23.90
2022-08-27T15:25:11.865Z,23.80
2022-08-27T15:27:39.260Z,23.80
2022-08-27T15:30:09.557Z,23.70
2022-08-27T15:32:40.091Z,23.80
2022-08-27T15:35:12.190Z,23.80
2022-08-27T15:37:38.869Z,23.70
2022-08-27T15:40:06.346Z,23.60
2022-08-27T15:42:33.038Z,23.40
2022-08-27T15:44:59.703Z,23.10
2022-08-27T15:47:26.587Z,22.90
2022-08-27T15:49:53.223Z,22.90
2022-08-27T15:52:21.826Z,23.00
2022-08-27T15:54:50.006Z,22.80
2022-08-27T15:57:17.691Z,22.80
2022-08-27T15:59:44.742Z,22.80
2022-08-27T16:02:16.414Z,22.70
2022-08-27T16:04:44.589Z,22.60
2022-08-27T16:07:16.654Z,22.60
2022-08-27T16:09:47.709Z,22.60
2022-08-27T16:12:26.827Z,22.50
2022-08-27T16:14:54.786Z,22.40
2022-08-27T16:17:21.644Z,22.40
2022-08-27T16:19:48.511Z,22.30
2022-08-27T16:22:16.235Z,22.10
2022-08-27T16:24:43.080Z,22.00
2022-08-27T16:27:09.787Z,22.00
2022-08-27T16:29:36.857Z,22.00
2022-08-27T16:32:04.102Z,21.90
2022-08-27T16:34:31.121Z,21.80
2022-08-27T16:36:57.787Z,21.70
2022-08-27T16:39:25.802Z,21.70
2022-08-27T16:41:57.296Z,21.60
2022-08-27T16:44:26.002Z,21.60
2022-08-27T16:46:53.168Z,21.60
2022-08-27T16:49:38.350Z,21.50
2022-08-27T16:52:06.689Z,21.50
2022-08-27T16:54:33.817Z,21.30
2022-08-27T16:57:00.782Z,21.30
2022-08-27T16:59:27.391Z,21.40
2022-08-27T17:01:55.103Z,21.20
2022-08-27T17:04:30.299Z,21.20
2022-08-27T17:06:58.284Z,21.20
2022-08-27T17:09:25.041Z,21.20
2022-08-27T17:11:56.786Z,21.30
2022-08-27T17:14:23.454Z,21.20
2022-08-27T17:16:50.099Z,21.00
2022-08-27T17:19:18.611Z,21.00
2022-08-27T17:21:45.668Z,21.00
2022-08-27T17:24:12.986Z,20.90
2022-08-27T17:26:40.130Z,20.80
2022-08-27T17:29:06.874Z,20.80
2022-08-27T17:31:38.815Z,20.80
2022-08-27T17:34:07.126Z,20.80
2022-08-27T17:36:33.939Z,20.70
2022-08-27T17:39:02.830Z,20.70
2022-08-27T17:41:38.843Z,20.80
2022-08-27T17:44:10.776Z,20.70
2022-08-27T17:46:37.671Z,20.60
2022-08-27T17:49:04.688Z,20.60
2022-08-27T17:51:31.297Z,20.60
2022-08-27T17:54:01.265Z,20.50
2022-08-27T17:56:29.092Z,20.40
2022-08-27T17:58:56.131Z,20.40
2022-08-27T18:01:29.044Z,20.40
2022-08-27T18:03:58.040Z,20.30
2022-08-27T18:06:26.682Z,20.30
2022-08-27T18:08:53.622Z,20.20
2022-08-27T18:11:20.329Z,20.20
2022-08-27T18:13:52.197Z,20.10
2022-08-27T18:16:19.296Z,20.10
2022-08-27T18:18:45.988Z,20.10
2022-08-27T18:21:12.578Z,20.00
2022-08-27T18:23:40.027Z,20.00
2022-08-27T18:26:13.272Z,19.90
2022-08-27T18:28:42.282Z,19.90
2022-08-27T18:31:09.867Z,19.90
2022-08-27T18:33:37.583Z,19.90
2022-08-27T18:36:05.497Z,19.70
2022-08-27T18:38:32.447Z,19.70
2022-08-27T18:41:00.418Z,19.60
2022-08-27T18:43:33.133Z,19.60
2022-08-27T18:45:59.966Z,19.60
2022-08-27T18:48:26.698Z,19.60
2022-08-27T18:50:58.369Z,19.50
2022-08-27T18:53:27.482Z,19.60
2022-08-27T18:55:54.483Z,19.40
2022-08-27T18:58:21.632Z,19.40
2022-08-27T19:00:52.154Z,19.40
2022-08-27T19:03:28.287Z,19.40
2022-08-27T19:05:56.130Z,19.40
2022-08-27T19:08:24.117Z,19.30
2022-08-27T19:10:51.302Z,19.40
2022-08-27T19:13:18.077Z,19.30
2022-08-27T19:16:00.398Z,19.30
2022-08-27T19:18:29.383Z,19.40
2022-08-27T19:20:57.170Z,19.30
2022-08-27T19:23:24.407Z,19.20
2022-08-27T19:25:52.386Z,19.20
2022-08-27T19:28:24.078Z,19.20
2022-08-27T19:30:50.871Z,19.30
2022-08-27T19:33:17.935Z,19.20
2022-08-27T19:35:44.655Z,19.30
2022-08-27T19:38:13.452Z,19.30
2022-08-27T19:40:41.353Z,19.30
2022-08-27T19:43:08.829Z,19.30
2022-08-27T19:45:36.491Z,19.30
2022-08-27T19:48:07.670Z,19.20
2022-08-27T19:50:34.681Z,19.30
2022-08-27T19:53:01.398Z,19.30
2022-08-27T19:55:28.025Z,19.50
2022-08-27T19:57:54.657Z,19.30
2022-08-27T20:00:24.642Z,19.40
2022-08-27T20:02:54.885Z,19.40
2022-08-27T20:05:21.611Z,19.30
2022-08-27T20:07:51.000Z,19.40
2022-08-27T20:10:21.589Z,19.40
2022-08-27T20:12:49.007Z,19.40
2022-08-27T20:15:16.094Z,19.40
2022-08-27T20:17:43.948Z,19.30
2022-08-27T20:20:12.438Z,19.30
2022-08-27T20:22:39.881Z,19.30
2022-08-27T20:25:06.942Z,19.40
2022-08-27T20:27:34.097Z,19.20
2022-08-27T20:30:00.793Z,19.30
2022-08-27T20:32:29.936Z,19.20
2022-08-27T20:34:57.282Z,19.10
2022-08-27T20:37:24.240Z,19.10
2022-08-27T20:39:52.537Z,19.10
2022-08-27T20:42:19.932Z,19.10
2022-08-27T20:44:46.855Z,19.10
2022-08-27T20:47:13.754Z,19.10
2022-08-27T20:49:41.486Z,19.20
2022-08-27T20:52:11.547Z,19.10
2022-08-27T20:54:39.193Z,19.10
2022-08-27T20:57:06.080Z,19.00
2022-08-27T20:59:51.230Z,19.00
2022-08-27T21:02:26.694Z,19.00
2022-08-27T21:04:53.541Z,19.00
2022-08-27T21:07:21.281Z,19.00
2022-08-27T21:09:55.570Z,18.90
2022-08-27T21:12:27.957Z,18.90
2022-08-27T21:14:56.181Z,18.90
2022-08-27T21:17:25.228Z,18.80
2022-08-27T21:19:52.282Z,18.80
2022-08-27T21:22:20.020Z,18.80
2022-08-27T21:24:47.562Z,18.80
2022-08-27T21:27:15.949Z,18.70
2022-08-27T21:29:44.487Z,18.70
2022-08-27T21:32:11.688Z,18.70
2022-08-27T21:34:38.366Z,18.60
2022-08-27T21:37:05.075Z,18.70
2022-08-27T21:39:33.246Z,18.60
2022-08-27T21:42:01.431Z,18.60
2022-08-27T21:44:29.523Z,18.60
2022-08-27T21:46:56.807Z,18.70
2022-08-27T21:49:23.470Z,18.60
2022-08-27T21:51:50.076Z,18.60
2022-08-27T21:54:17.896Z,18.60
2022-08-27T21:56:45.556Z,18.60
2022-08-27T21:59:12.214Z,18.60
2022-08-27T22:01:39.528Z,18.70
2022-08-27T22:04:06.490Z,18.70
2022-08-27T22:06:33.125Z,18.70
2022-08-27T22:09:00.046Z,18.60
2022-08-27T22:11:27.494Z,18.60
2022-08-27T22:13:57.891Z,18.60
2022-08-27T22:16:24.742Z,18.70
2022-08-27T22:18:54.531Z,18.60
2022-08-27T22:21:22.194Z,18.70
2022-08-27T22:23:51.227Z,18.70
2022-08-27T22:26:18.549Z,18.70
2022-08-27T22:28:45.238Z,18.70
2022-08-27T22:31:11.934Z,18.80
2022-08-27T22:33:38.747Z,18.70
2022-08-27T22:36:05.578Z,18.70
2022-08-27T22:38:32.169Z,18.70
2022-08-27T22:40:59.386Z,18.70
2022-08-27T22:43:27.765Z,18.80
2022-08-27T22:45:54.359Z,18.80
2022-08-27T22:48:21.155Z,18.70
2022-08-27T22:50:47.767Z,18.80
2022-08-27T22:53:14.489Z,18.70
2022-08-27T22:55:41.185Z,18.80
2022-08-27T22:58:07.878Z,18.70
2022-08-27T23:00:37.073Z,18.70
2022-08-27T23:03:06.713Z,18.70
2022-08-27T23:05:40.274Z,18.70
2022-08-27T23:08:10.362Z,18.80
2022-08-27T23:10:38.479Z,18.70
2022-08-27T23:13:06.836Z,18.70
2022-08-27T23:15:33.578Z,18.70
2022-08-27T23:18:01.430Z,18.70
2022-08-27T23:20:28.735Z,18.70
2022-08-27T23:22:56.325Z,18.70
2022-08-27T23:25:43.530Z,18.60
2022-08-27T23:28:14.410Z,18.70
2022-08-27T23:30:42.679Z,18.70
2022-08-27T23:33:09.602Z,18.70
2022-08-27T23:35:36.321Z,18.50
2022-08-27T23:38:03.051Z,18.50
2022-08-27T23:40:30.262Z,18.50
2022-08-27T23:42:56.970Z,18.50
2022-08-27T23:45:25.345Z,18.50
2022-08-27T23:47:52.603Z,18.50
2022-08-27T23:50:20.318Z,18.50
2022-08-27T23:52:49.701Z,18.60
2022-08-27T23:55:16.346Z,18.50
2022-08-27T23:57:43.356Z,18.60
